createdAt,value
2019-01-31T00:02:12.355Z,19.90
2019-01-31T00:05:01.515Z,19.60
2019-01-31T00:07:53.717Z,19.03
2019-01-31T00:10:28.146Z,19.60
2019-01-31T00:13:08.172Z,18.97
2019-01-31T00:15:39.711Z,18.63
2019-01-31T00:18:11.224Z,20.40
2019-01-31T00:20:42.720Z,19.33
2019-01-31T00:23:33.648Z,18.70
2019-01-31T00:26:27.359Z,20.57
2019-01-31T00:29:01.636Z,19.40
2019-01-31T00:31:47.883Z,19.07
2019-01-31T00:34:19.377Z,18.50
2019-01-31T00:36:53.556Z,19.93
2019-01-31T00:39:52.051Z,19.20
2019-01-31T00:42:23.593Z,19.77
2019-01-31T00:45:16.128Z,19.93
2019-01-31T00:48:05.932Z,19.60
2019-01-31T00:50:37.436Z,19.90
2019-01-31T00:53:20.983Z,20.00
2019-01-31T00:56:01.226Z,19.30
2019-01-31T00:58:52.972Z,20.23
2019-01-31T01:01:24.487Z,20.87
2019-01-31T01:04:04.627Z,20.23
2019-01-31T01:06:38.874Z,20.00
2019-01-31T01:09:27.977Z,20.27
2019-01-31T01:12:04.485Z,19.10
2019-01-31T01:14:47.419Z,19.83
2019-01-31T01:17:21.750Z,20.20
2019-01-31T01:20:11.176Z,20.03
2019-01-31T01:22:51.168Z,20.03
2019-01-31T01:25:22.706Z,21.00
2019-01-31T01:28:09.080Z,21.37
2019-01-31T01:30:49.496Z,20.87
2019-01-31T01:33:29.879Z,21.77
2019-01-31T01:36:09.967Z,21.07
2019-01-31T01:38:59.411Z,20.33
2019-01-31T01:41:42.855Z,20.87
2019-01-31T01:44:23.016Z,21.20
2019-01-31T01:47:00.128Z,21.80
2019-01-31T01:49:31.643Z,20.67
2019-01-31T01:52:17.943Z,21.20
2019-01-31T01:54:58.242Z,21.27
2019-01-31T01:57:29.784Z,22.80
2019-01-31T02:00:21.959Z,21.43
2019-01-31T02:03:05.130Z,21.53
2019-01-31T02:05:48.067Z,22.17
2019-01-31T02:08:47.822Z,21.97
2019-01-31T02:11:19.340Z,22.77
2019-01-31T02:13:59.765Z,23.20
2019-01-31T02:16:46.176Z,21.70
2019-01-31T02:19:26.494Z,22.40
2019-01-31T02:22:00.846Z,22.33
2019-01-31T02:24:35.141Z,23.70
2019-01-31T02:27:15.183Z,22.33
2019-01-31T02:29:55.652Z,23.23
2019-01-31T02:32:42.028Z,23.27
2019-01-31T02:35:22.124Z,23.57
2019-01-31T02:38:02.064Z,23.40
2019-01-31T02:40:45.217Z,22.50
2019-01-31T02:43:25.693Z,23.47
2019-01-31T02:46:18.281Z,22.67
2019-01-31T02:48:55.940Z,22.10
2019-01-31T02:51:45.372Z,23.87
2019-01-31T02:54:33.143Z,24.07
2019-01-31T02:57:16.625Z,21.93
2019-01-31T03:00:22.661Z,22.13
2019-01-31T03:02:54.151Z,21.85
2019-01-31T03:05:37.480Z,22.47
2019-01-31T03:08:17.640Z,23.07
2019-01-31T03:10:49.149Z,22.53
2019-01-31T03:13:20.661Z,24.37
2019-01-31T03:16:23.459Z,22.27
2019-01-31T03:19:20.471Z,23.17
2019-01-31T03:21:57.840Z,22.30
2019-01-31T03:25:00.863Z,22.40
2019-01-31T03:27:50.331Z,22.10
2019-01-31T03:30:41.026Z,22.63
2019-01-31T03:33:48.360Z,23.13
2019-01-31T03:36:42.327Z,21.83
2019-01-31T03:39:31.783Z,22.77
2019-01-31T03:42:27.148Z,21.57
2019-01-31T03:45:04.080Z,23.03
2019-01-31T03:47:41.269Z,22.03
2019-01-31T03:50:15.704Z,23.00
2019-01-31T03:52:49.901Z,23.40
2019-01-31T03:55:42.356Z,23.00
2019-01-31T03:58:16.388Z,23.13
2019-01-31T04:00:53.615Z,23.47
2019-01-31T04:03:28.424Z,22.70
2019-01-31T04:05:59.925Z,21.93
2019-01-31T04:08:28.359Z,21.97
2019-01-31T04:10:56.811Z,23.20
2019-01-31T04:13:25.233Z,22.80
2019-01-31T04:15:53.648Z,22.37
2019-01-31T04:18:22.106Z,23.27
2019-01-31T04:20:51.174Z,21.20
2019-01-31T04:23:19.754Z,22.63
2019-01-31T04:25:48.196Z,21.50
2019-01-31T04:28:16.629Z,21.47
2019-01-31T04:30:45.059Z,20.73
2019-01-31T04:33:13.494Z,20.07
2019-01-31T04:35:41.939Z,20.87
2019-01-31T04:38:10.388Z,20.13
2019-01-31T04:40:38.813Z,20.27
2019-01-31T04:43:07.247Z,19.77
2019-01-31T04:45:35.671Z,20.30
2019-01-31T04:48:04.216Z,19.37
2019-01-31T04:50:32.618Z,20.70
2019-01-31T04:53:01.313Z,18.87
2019-01-31T04:55:29.728Z,19.97
2019-01-31T04:57:58.439Z,19.40
2019-01-31T05:00:27.012Z,20.60
2019-01-31T05:02:55.428Z,21.40
2019-01-31T05:05:23.881Z,22.07
2019-01-31T05:07:52.301Z,20.93
2019-01-31T05:10:20.825Z,20.73
2019-01-31T05:12:49.243Z,21.68
2019-01-31T05:15:17.691Z,21.60
2019-01-31T05:17:46.132Z,21.77
2019-01-31T05:20:16.705Z,22.83
2019-01-31T05:22:45.284Z,21.27
2019-01-31T05:25:14.746Z,22.13
2019-01-31T05:27:43.281Z,22.50
2019-01-31T05:30:14.039Z,23.80
2019-01-31T05:32:42.460Z,22.60
2019-01-31T05:35:11.895Z,23.60
2019-01-31T05:37:41.897Z,22.97
2019-01-31T05:40:12.767Z,23.07
2019-01-31T05:42:41.195Z,24.73
2019-01-31T05:45:12.272Z,23.27
2019-01-31T05:47:40.722Z,24.40
2019-01-31T05:50:14.473Z,25.53
2019-01-31T05:52:42.915Z,26.23
2019-01-31T05:55:11.976Z,26.07
2019-01-31T05:57:40.497Z,25.83
2019-01-31T06:00:24.694Z,25.80
2019-01-31T06:02:53.140Z,25.60
2019-01-31T06:05:21.690Z,24.33
2019-01-31T06:07:50.137Z,26.47
2019-01-31T06:10:18.596Z,25.87
2019-01-31T06:12:47.015Z,26.67
2019-01-31T06:15:18.964Z,26.37
2019-01-31T06:17:47.383Z,26.13
2019-01-31T06:20:21.800Z,26.77
2019-01-31T06:22:50.233Z,25.83
2019-01-31T06:25:18.716Z,27.30
2019-01-31T06:27:47.282Z,28.03
2019-01-31T06:30:18.938Z,27.63
2019-01-31T06:32:47.628Z,26.83
2019-01-31T06:35:16.296Z,27.27
2019-01-31T06:37:44.735Z,27.98
2019-01-31T06:40:18.424Z,29.07
2019-01-31T06:42:47.004Z,28.47
2019-01-31T06:45:20.464Z,29.43
2019-01-31T06:47:49.036Z,28.57
2019-01-31T06:50:17.548Z,30.80
2019-01-31T06:52:46.076Z,28.53
2019-01-31T06:55:15.440Z,29.50
2019-01-31T06:57:43.860Z,30.13
2019-01-31T07:00:20.350Z,28.27
2019-01-31T07:02:48.971Z,30.43
2019-01-31T07:05:17.531Z,28.90
2019-01-31T07:07:45.999Z,29.33
2019-01-31T07:10:23.260Z,28.27
2019-01-31T07:12:51.752Z,28.50
2019-01-31T07:15:20.292Z,29.47
2019-01-31T07:17:48.708Z,28.57
2019-01-31T07:20:17.972Z,27.70
2019-01-31T07:22:46.967Z,29.43
2019-01-31T07:25:20.804Z,29.33
2019-01-31T07:27:49.381Z,29.60
2019-01-31T07:30:20.373Z,29.90
2019-01-31T07:32:49.009Z,30.00
2019-01-31T07:35:17.619Z,30.57
2019-01-31T07:37:46.137Z,28.70
2019-01-31T07:40:16.903Z,27.57
2019-01-31T07:42:45.319Z,28.80
2019-01-31T07:45:22.246Z,30.00
2019-01-31T07:47:50.769Z,28.90
2019-01-31T07:50:19.727Z,28.03
2019-01-31T07:52:48.935Z,29.13
2019-01-31T07:55:17.430Z,28.80
2019-01-31T07:57:45.856Z,28.60
2019-01-31T08:00:20.200Z,28.33
2019-01-31T08:02:48.625Z,28.17
2019-01-31T08:05:18.861Z,29.00
2019-01-31T08:07:48.309Z,28.00
2019-01-31T08:10:19.396Z,28.13
2019-01-31T08:12:50.646Z,28.93
2019-01-31T08:15:19.530Z,27.10
2019-01-31T08:17:47.975Z,27.47
2019-01-31T08:20:18.800Z,28.00
2019-01-31T08:22:47.270Z,27.03
2019-01-31T08:25:24.431Z,27.07
2019-01-31T08:27:54.109Z,26.37
2019-01-31T08:30:34.177Z,27.60
2019-01-31T08:33:02.623Z,27.27
2019-01-31T08:35:31.144Z,25.27
2019-01-31T08:37:59.833Z,27.30
2019-01-31T08:40:28.343Z,27.43
2019-01-31T08:42:57.453Z,25.90
2019-01-31T08:45:25.952Z,26.10
2019-01-31T08:47:54.404Z,25.13
2019-01-31T08:50:27.532Z,26.67
2019-01-31T08:52:55.355Z,26.07
2019-01-31T08:55:23.871Z,25.87
2019-01-31T08:57:52.295Z,25.87
2019-01-31T09:00:22.788Z,27.03
2019-01-31T09:02:51.344Z,26.70
2019-01-31T09:05:20.100Z,25.37
2019-01-31T09:07:48.603Z,25.83
2019-01-31T09:10:22.779Z,25.83
2019-01-31T09:12:51.447Z,26.40
2019-01-31T09:15:22.038Z,24.50
2019-01-31T09:17:50.590Z,25.63
2019-01-31T09:20:28.047Z,25.50
2019-01-31T09:23:02.128Z,25.97
2019-01-31T09:25:42.546Z,24.70
2019-01-31T09:28:43.852Z,24.23
2019-01-31T09:31:37.840Z,23.60
2019-01-31T09:34:18.131Z,23.83
2019-01-31T09:36:55.312Z,24.07
2019-01-31T09:39:38.764Z,24.80
2019-01-31T09:42:26.098Z,23.70
2019-01-31T09:44:51.867Z,23.30
2019-01-31T09:47:38.176Z,23.63
2019-01-31T09:50:28.170Z,23.50
2019-01-31T09:53:11.187Z,24.00
2019-01-31T09:56:09.633Z,24.07
2019-01-31T09:58:49.812Z,23.53
2019-01-31T10:01:46.732Z,22.30
2019-01-31T10:04:32.876Z,22.57
2019-01-31T10:07:37.251Z,23.00
2019-01-31T10:10:26.627Z,22.37
2019-01-31T10:13:10.067Z,23.33
2019-01-31T10:15:53.598Z,22.03
2019-01-31T10:18:45.825Z,20.10
2019-01-31T10:21:26.201Z,21.27
2019-01-31T10:24:21.900Z,19.87
2019-01-31T10:27:01.763Z,21.37
2019-01-31T10:29:35.730Z,20.57
2019-01-31T10:32:15.923Z,20.80
2019-01-31T10:34:56.168Z,20.37
2019-01-31T10:37:33.230Z,21.20
2019-01-31T10:40:19.637Z,22.67
2019-01-31T10:43:17.576Z,23.07
2019-01-31T10:45:51.688Z,21.93
2019-01-31T10:48:31.984Z,22.63
2019-01-31T10:51:06.437Z,21.07
2019-01-31T10:53:49.983Z,23.57
2019-01-31T10:56:37.446Z,23.07
2019-01-31T10:59:14.696Z,22.77
2019-01-31T11:02:07.551Z,22.90
2019-01-31T11:04:47.423Z,22.33
2019-01-31T11:07:30.392Z,23.17
2019-01-31T11:10:36.794Z,23.07
2019-01-31T11:13:33.612Z,23.27
2019-01-31T11:16:07.840Z,21.70
2019-01-31T11:18:41.904Z,22.63
2019-01-31T11:21:28.395Z,22.67
2019-01-31T11:24:09.032Z,21.97
2019-01-31T11:26:43.316Z,22.03
2019-01-31T11:29:26.772Z,21.50
2019-01-31T11:32:01.232Z,21.93
2019-01-31T11:34:35.715Z,21.53
2019-01-31T11:37:07.211Z,20.63
2019-01-31T11:39:59.406Z,21.27
2019-01-31T11:42:30.912Z,19.70
2019-01-31T11:45:14.391Z,21.23
2019-01-31T11:48:14.407Z,18.33
2019-01-31T11:51:11.431Z,13.60
2019-01-31T11:53:42.946Z,12.27
2019-01-31T11:56:32.539Z,11.70
2019-01-31T11:59:03.020Z,11.27
2019-01-31T12:01:31.683Z,13.37
2019-01-31T12:04:01.977Z,12.37
2019-01-31T12:06:30.472Z,15.20
2019-01-31T12:08:59.129Z,14.00
2019-01-31T12:11:27.922Z,13.83
2019-01-31T12:13:56.399Z,15.13
2019-01-31T12:16:24.851Z,15.08
2019-01-31T12:18:53.439Z,15.80
2019-01-31T12:21:21.961Z,17.43
2019-01-31T12:23:50.392Z,17.57
2019-01-31T12:26:18.856Z,16.60
2019-01-31T12:28:47.268Z,15.60
2019-01-31T12:31:15.780Z,17.87
2019-01-31T12:33:44.218Z,15.75
2019-01-31T12:36:12.669Z,16.37
2019-01-31T12:38:41.112Z,14.93
2019-01-31T12:41:09.575Z,15.80
2019-01-31T12:43:38.245Z,12.90
2019-01-31T12:46:06.828Z,14.20
2019-01-31T12:48:35.331Z,14.07
2019-01-31T12:51:04.039Z,13.63
2019-01-31T12:53:32.467Z,12.30
2019-01-31T12:56:00.979Z,11.73
2019-01-31T12:58:33.569Z,11.70
2019-01-31T13:00:59.563Z,12.23
2019-01-31T13:03:28.011Z,11.80
2019-01-31T13:05:56.435Z,11.00
2019-01-31T13:08:24.947Z,11.20
2019-01-31T13:10:53.543Z,10.23
2019-01-31T13:13:21.998Z,9.90
2019-01-31T13:15:50.498Z,9.63
2019-01-31T13:18:19.058Z,9.73
2019-01-31T13:20:47.543Z,12.60
2019-01-31T13:23:16.303Z,10.90
2019-01-31T13:25:44.867Z,12.07
2019-01-31T13:28:13.342Z,11.20
2019-01-31T13:30:41.770Z,10.70
2019-01-31T13:33:10.416Z,9.67
2019-01-31T13:35:39.004Z,10.07
2019-01-31T13:38:07.495Z,10.93
2019-01-31T13:40:36.051Z,9.93
2019-01-31T13:43:07.296Z,10.63
2019-01-31T13:45:36.284Z,9.47
2019-01-31T13:48:07.421Z,10.70
2019-01-31T13:50:36.031Z,10.57
2019-01-31T13:53:06.460Z,10.13
2019-01-31T13:55:35.036Z,10.20
2019-01-31T13:58:03.720Z,9.90
2019-01-31T14:00:32.139Z,9.93
2019-01-31T14:03:00.651Z,8.90
2019-01-31T14:05:29.915Z,9.60
2019-01-31T14:07:58.663Z,10.60
2019-01-31T14:10:28.491Z,9.30
2019-01-31T14:12:56.947Z,9.87
2019-01-31T14:15:34.200Z,9.00
2019-01-31T14:18:03.659Z,8.47
2019-01-31T14:20:32.444Z,8.13
2019-01-31T14:23:00.865Z,8.90
2019-01-31T14:25:29.303Z,8.50
2019-01-31T14:27:57.752Z,9.23
2019-01-31T14:30:30.999Z,9.03
2019-01-31T14:32:59.795Z,8.17
2019-01-31T14:35:28.860Z,9.33
2019-01-31T14:37:57.368Z,9.57
2019-01-31T14:40:26.236Z,9.80
2019-01-31T14:42:55.236Z,9.00
2019-01-31T14:45:23.791Z,8.30
2019-01-31T14:47:52.321Z,9.60
2019-01-31T14:50:23.831Z,8.43
2019-01-31T14:52:52.339Z,9.47
2019-01-31T14:55:20.952Z,9.60
2019-01-31T14:57:49.400Z,9.37
2019-01-31T15:00:31.766Z,9.27
2019-01-31T15:03:00.525Z,9.00
2019-01-31T15:05:29.488Z,9.93
2019-01-31T15:07:57.919Z,8.70
2019-01-31T15:10:28.875Z,8.50
2019-01-31T15:12:57.404Z,9.67
2019-01-31T15:15:25.864Z,9.23
2019-01-31T15:17:54.411Z,8.60
2019-01-31T15:20:35.921Z,8.27
2019-01-31T15:22:56.396Z,9.20
2019-01-31T15:25:24.908Z,8.87
2019-01-31T15:27:53.407Z,8.60
2019-01-31T15:30:27.623Z,8.50
2019-01-31T15:32:56.288Z,9.80
2019-01-31T15:35:24.895Z,8.87
2019-01-31T15:37:53.418Z,9.90
2019-01-31T15:40:24.978Z,9.40
2019-01-31T15:42:53.500Z,9.70
2019-01-31T15:45:21.992Z,9.50
2019-01-31T15:47:50.580Z,9.40
2019-01-31T15:50:19.391Z,10.30
2019-01-31T15:52:47.817Z,9.93
2019-01-31T15:55:19.198Z,10.13
2019-01-31T15:57:47.764Z,9.87
2019-01-31T16:00:44.224Z,9.33
2019-01-31T16:03:17.278Z,9.43
2019-01-31T16:05:46.055Z,9.00
2019-01-31T16:08:14.650Z,9.93
2019-01-31T16:10:43.256Z,9.63
2019-01-31T16:13:11.796Z,11.10
2019-01-31T16:15:40.556Z,10.73
2019-01-31T16:18:11.020Z,10.33
2019-01-31T16:20:39.583Z,10.43
2019-01-31T16:23:08.652Z,9.70
2019-01-31T16:25:37.303Z,10.27
2019-01-31T16:28:05.865Z,10.90
2019-01-31T16:30:34.496Z,10.27
2019-01-31T16:33:02.948Z,10.83
2019-01-31T16:35:31.651Z,9.73
2019-01-31T16:38:00.245Z,11.00
2019-01-31T16:40:28.740Z,11.47
2019-01-31T16:42:57.324Z,12.07
2019-01-31T16:45:25.818Z,11.40
2019-01-31T16:47:54.335Z,12.83
2019-01-31T16:50:24.002Z,11.83
2019-01-31T16:52:52.528Z,13.37
2019-01-31T16:55:26.156Z,13.70
2019-01-31T16:57:55.269Z,12.00
2019-01-31T17:00:26.244Z,11.63
2019-01-31T17:02:54.696Z,11.87
2019-01-31T17:05:26.104Z,11.60
2019-01-31T17:07:54.688Z,12.33
2019-01-31T17:10:23.218Z,11.50
2019-01-31T17:12:51.741Z,12.07
2019-01-31T17:15:20.706Z,13.03
2019-01-31T17:17:52.652Z,12.77
2019-01-31T17:20:33.039Z,12.87
2019-01-31T17:23:03.213Z,12.77
2019-01-31T17:25:31.955Z,11.73
2019-01-31T17:28:00.423Z,13.10
2019-01-31T17:30:29.681Z,13.90
2019-01-31T17:33:00.421Z,15.50
2019-01-31T17:35:29.071Z,15.70
2019-01-31T17:37:57.501Z,16.60
2019-01-31T17:40:31.935Z,17.77
2019-01-31T17:43:00.967Z,16.77
2019-01-31T17:45:30.774Z,16.27
2019-01-31T17:47:59.636Z,15.80
2019-01-31T17:50:28.207Z,16.77
2019-01-31T17:52:56.628Z,17.97
2019-01-31T17:55:26.420Z,16.93
2019-01-31T17:57:54.941Z,17.10
2019-01-31T18:00:30.629Z,17.93
2019-01-31T18:02:59.068Z,16.43
2019-01-31T18:05:27.600Z,17.07
2019-01-31T18:07:56.028Z,17.60
2019-01-31T18:10:24.624Z,16.87
2019-01-31T18:12:53.235Z,17.30
2019-01-31T18:15:22.739Z,19.40
2019-01-31T18:17:51.191Z,18.93
2019-01-31T18:20:21.376Z,20.57
2019-01-31T18:22:49.843Z,19.47
2019-01-31T18:25:18.360Z,20.43
2019-01-31T18:27:46.786Z,19.83
2019-01-31T18:30:23.542Z,21.00
2019-01-31T18:32:52.259Z,19.33
2019-01-31T18:35:20.712Z,18.27
2019-01-31T18:37:49.208Z,17.53
2019-01-31T18:40:29.652Z,17.30
2019-01-31T18:42:58.084Z,17.30
2019-01-31T18:45:28.152Z,16.60
2019-01-31T18:47:56.679Z,16.77
2019-01-31T18:50:30.847Z,16.90
2019-01-31T18:52:59.368Z,16.93
2019-01-31T18:55:28.451Z,17.40
2019-01-31T18:57:57.110Z,17.37
2019-01-31T19:00:28.136Z,18.30
2019-01-31T19:02:56.794Z,17.40
2019-01-31T19:05:25.481Z,17.77
2019-01-31T19:07:54.610Z,18.10
2019-01-31T19:10:23.125Z,16.83
2019-01-31T19:12:51.720Z,18.30
2019-01-31T19:15:22.247Z,19.37
2019-01-31T19:17:50.685Z,18.27
2019-01-31T19:20:21.646Z,18.07
2019-01-31T19:22:50.435Z,18.03
2019-01-31T19:25:19.408Z,17.90
2019-01-31T19:27:48.148Z,17.27
2019-01-31T19:30:22.619Z,17.70
2019-01-31T19:32:51.197Z,16.80
2019-01-31T19:35:20.368Z,17.73
2019-01-31T19:37:48.929Z,15.93
2019-01-31T19:40:31.611Z,16.97
2019-01-31T19:43:00.229Z,15.97
2019-01-31T19:45:34.657Z,15.77
2019-01-31T19:48:05.281Z,17.60
2019-01-31T19:50:33.363Z,16.63
2019-01-31T19:53:01.888Z,17.83
2019-01-31T19:55:31.083Z,16.40
2019-01-31T19:57:59.510Z,17.37
2019-01-31T20:00:28.079Z,16.77
2019-01-31T20:02:56.818Z,16.23
2019-01-31T20:05:26.390Z,17.17
2019-01-31T20:07:55.149Z,17.60
2019-01-31T20:10:25.712Z,16.60
2019-01-31T20:12:54.607Z,18.90
2019-01-31T20:15:23.558Z,17.43
2019-01-31T20:17:52.197Z,16.20
2019-01-31T20:20:22.649Z,17.27
2019-01-31T20:22:52.021Z,19.27
2019-01-31T20:25:21.408Z,17.77
2019-01-31T20:27:49.972Z,19.10
2019-01-31T20:30:21.111Z,18.87
2019-01-31T20:32:49.729Z,17.60
2019-01-31T20:35:20.692Z,20.03
2019-01-31T20:37:49.216Z,18.87
2019-01-31T20:40:23.056Z,20.37
2019-01-31T20:42:51.744Z,20.20
2019-01-31T20:45:20.227Z,19.53
2019-01-31T20:47:48.823Z,19.83
2019-01-31T20:50:22.741Z,19.30
2019-01-31T20:52:52.375Z,19.20
2019-01-31T20:55:20.938Z,20.47
2019-01-31T20:57:49.367Z,20.73
2019-01-31T21:00:22.660Z,21.40
2019-01-31T21:02:51.280Z,20.40
2019-01-31T21:05:19.920Z,20.93
2019-01-31T21:07:48.520Z,20.43
2019-01-31T21:10:17.318Z,21.77
2019-01-31T21:12:45.924Z,21.50
2019-01-31T21:15:19.954Z,21.07
2019-01-31T21:17:48.516Z,21.90
2019-01-31T21:20:19.104Z,22.43
2019-01-31T21:22:48.751Z,21.57
2019-01-31T21:25:18.366Z,21.80
2019-01-31T21:27:47.928Z,22.53
2019-01-31T21:30:19.455Z,22.63
2019-01-31T21:32:48.011Z,22.83
2019-01-31T21:35:17.317Z,23.80
2019-01-31T21:37:45.769Z,23.00
2019-01-31T21:40:16.770Z,22.40
2019-01-31T21:42:45.273Z,24.50
2019-01-31T21:45:19.711Z,23.27
2019-01-31T21:47:48.399Z,22.13
2019-01-31T21:50:23.413Z,23.37
2019-01-31T21:52:51.929Z,23.90
2019-01-31T21:55:20.515Z,24.07
2019-01-31T21:57:49.033Z,22.17
2019-01-31T22:00:26.464Z,23.50
2019-01-31T22:02:54.984Z,22.23
2019-01-31T22:05:23.488Z,22.80
2019-01-31T22:07:52.016Z,24.07
2019-01-31T22:10:20.812Z,22.10
2019-01-31T22:12:49.313Z,22.70
2019-01-31T22:15:23.139Z,23.00
2019-01-31T22:17:51.627Z,22.63
2019-01-31T22:20:20.201Z,23.10
2019-01-31T22:22:48.624Z,24.63
2019-01-31T22:25:21.872Z,23.70
2019-01-31T22:27:50.726Z,23.47
2019-01-31T22:30:24.635Z,25.17
2019-01-31T22:32:53.156Z,24.73
2019-01-31T22:35:21.589Z,25.50
2019-01-31T22:37:50.046Z,24.60
2019-01-31T22:40:19.012Z,24.00
2019-01-31T22:42:47.523Z,25.63
2019-01-31T22:45:18.084Z,25.77
2019-01-31T22:47:47.204Z,25.50
2019-01-31T22:50:18.247Z,25.03
2019-01-31T22:52:46.840Z,25.73
2019-01-31T22:55:19.746Z,26.13
2019-01-31T22:57:48.170Z,25.63
2019-01-31T23:00:32.923Z,23.47
2019-01-31T23:03:02.079Z,24.77
2019-01-31T23:05:30.571Z,25.93
2019-01-31T23:07:59.024Z,26.33
2019-01-31T23:10:27.453Z,24.67
2019-01-31T23:12:56.149Z,25.83
2019-01-31T23:15:24.607Z,26.57
2019-01-31T23:17:53.058Z,26.27
2019-01-31T23:20:21.518Z,24.73
2019-01-31T23:22:49.952Z,25.50
2019-01-31T23:25:18.646Z,26.30
2019-01-31T23:27:47.088Z,24.43
2019-01-31T23:30:16.892Z,24.93
2019-01-31T23:32:45.348Z,25.03
2019-01-31T23:35:15.385Z,26.20
2019-01-31T23:37:43.979Z,24.80
2019-01-31T23:40:13.976Z,25.37
2019-01-31T23:42:43.720Z,25.67
2019-01-31T23:45:17.567Z,26.83
2019-01-31T23:47:48.836Z,25.90
2019-01-31T23:50:16.668Z,25.40
2019-01-31T23:52:45.136Z,26.60
2019-01-31T23:55:17.512Z,26.47
2019-01-31T23:57:46.007Z,25.27
